Terminal Aerodrome Forecast
Issued by NWS

Home | Current Version | Previous Version | Text Only | Print | Product List | Glossary On
Versions: 1 2 3 4 5 6 7 8 9 10 11 12 13 14 15 16 17 18 19 20 21 22 23 24 25 26 27 28 29 30 31 32 33 34 35 36
000
FTUS45 KBYZ 252335
TAFLVM
TAF
KLVM 252335Z 2600/2624 VRB04KT P6SM VCSH FEW035 OVC070
     FM261400 08013KT P6SM VCSH OVC020
     FM261600 07013KT 3SM -RASN BR BKN009 OVC013
     FM262100 09012KT 5SM -RASN SCT009 OVC013=

USA.gov is the U.S. government's official web portal to all federal, state and local government web resources and services.